sensor_id;sensor_type;location;lat;lon;timestamp;pressure;altitude;pressure_sealevel;temperature;humidity
14293;BME280;62290;59.420;17.842;2023-02-28T00:00:35;102305.19;;;26.12;18.34
14293;BME280;62290;59.420;17.842;2023-02-28T00:03:03;102304.41;;;26.10;18.17
14293;BME280;62290;59.420;17.842;2023-02-28T00:05:33;102309.81;;;26.10;17.90
14293;BME280;62290;59.420;17.842;2023-02-28T00:08:01;102304.53;;;26.08;18.26
14293;BME280;62290;59.420;17.842;2023-02-28T00:10:31;102299.25;;;26.07;17.97
14293;BME280;62290;59.420;17.842;2023-02-28T00:13:01;102306.38;;;26.08;18.46
14293;BME280;62290;59.420;17.842;2023-02-28T00:15:29;102316.31;;;26.07;18.17
14293;BME280;62290;59.420;17.842;2023-02-28T00:17:58;102318.19;;;26.07;17.95
14293;BME280;62290;59.420;17.842;2023-02-28T00:20:26;102320.97;;;26.05;18.47
14293;BME280;62290;59.420;17.842;2023-02-28T00:22:55;102311.03;;;26.06;18.35
14293;BME280;62290;59.420;17.842;2023-02-28T00:25:24;102315.56;;;26.05;17.97
14293;BME280;62290;59.420;17.842;2023-02-28T00:27:53;102310.38;;;26.02;18.08
14293;BME280;62290;59.420;17.842;2023-02-28T00:30:23;102272.84;;;25.74;18.43
14293;BME280;62290;59.420;17.842;2023-02-28T00:32:51;102315.78;;;26.02;18.33
14293;BME280;62290;59.420;17.842;2023-02-28T00:35:19;102322.06;;;26.03;18.40
14293;BME280;62290;59.420;17.842;2023-02-28T00:37:48;102314.81;;;26.03;17.90
14293;BME280;62290;59.420;17.842;2023-02-28T00:40:17;102310.16;;;26.05;17.92
14293;BME280;62290;59.420;17.842;2023-02-28T00:42:45;102308.47;;;26.04;18.42
14293;BME280;62290;59.420;17.842;2023-02-28T00:45:13;102307.69;;;26.02;18.27
14293;BME280;62290;59.420;17.842;2023-02-28T00:47:41;102304.38;;;25.99;18.04
14293;BME280;62290;59.420;17.842;2023-02-28T00:50:10;102311.47;;;26.00;18.12
14293;BME280;62290;59.420;17.842;2023-02-28T00:52:38;102303.50;;;25.98;18.36
14293;BME280;62290;59.420;17.842;2023-02-28T00:55:07;102302.63;;;25.98;18.32
14293;BME280;62290;59.420;17.842;2023-02-28T00:57:37;102296.34;;;25.97;18.04
14293;BME280;62290;59.420;17.842;2023-02-28T01:00:05;102287.28;;;25.98;18.08
14293;BME280;62290;59.420;17.842;2023-02-28T01:02:34;102292.81;;;25.97;18.61
14293;BME280;62290;59.420;17.842;2023-02-28T01:05:02;102294.53;;;25.98;18.49
14293;BME280;62290;59.420;17.842;2023-02-28T01:07:30;102278.75;;;25.92;18.46
14293;BME280;62290;59.420;17.842;2023-02-28T01:09:58;102289.34;;;25.95;18.39
14293;BME280;62290;59.420;17.842;2023-02-28T01:12:26;102289.47;;;25.93;18.27
14293;BME280;62290;59.420;17.842;2023-02-28T01:14:58;102292.38;;;25.90;18.15
14293;BME280;62290;59.420;17.842;2023-02-28T01:17:26;102294.22;;;25.90;18.49
14293;BME280;62290;59.420;17.842;2023-02-28T01:19:54;102295.50;;;25.84;18.41
14293;BME280;62290;59.420;17.842;2023-02-28T01:22:24;102295.19;;;25.89;18.58
14293;BME280;62290;59.420;17.842;2023-02-28T01:24:52;102301.44;;;25.89;18.06
14293;BME280;62290;59.420;17.842;2023-02-28T01:27:20;102293.34;;;25.89;18.57
14293;BME280;62290;59.420;17.842;2023-02-28T01:29:50;102303.31;;;25.89;18.54
14293;BME280;62290;59.420;17.842;2023-02-28T01:32:19;102302.53;;;25.87;18.18
14293;BME280;62290;59.420;17.842;2023-02-28T01:34:49;102302.53;;;25.87;18.32
14293;BME280;62290;59.420;17.842;2023-02-28T01:37:17;102305.00;;;25.90;18.46
14293;BME280;62290;59.420;17.842;2023-02-28T01:39:45;102305.88;;;25.90;18.36
14293;BME280;62290;59.420;17.842;2023-02-28T01:42:13;102306.00;;;25.89;18.53
14293;BME280;62290;59.420;17.842;2023-02-28T01:45:02;102315.72;;;25.91;18.01
14293;BME280;62290;59.420;17.842;2023-02-28T01:47:34;102314.00;;;25.90;18.30
14293;BME280;62290;59.420;17.842;2023-02-28T01:50:07;102312.25;;;25.89;18.16
14293;BME280;62290;59.420;17.842;2023-02-28T01:52:37;102312.25;;;25.89;18.07
14293;BME280;62290;59.420;17.842;2023-02-28T01:55:06;102317.66;;;25.89;18.41
14293;BME280;62290;59.420;17.842;2023-02-28T01:57:38;102319.38;;;25.90;18.12
14293;BME280;62290;59.420;17.842;2023-02-28T02:00:11;102313.34;;;25.87;18.04
14293;BME280;62290;59.420;17.842;2023-02-28T02:02:54;102312.50;;;25.86;18.08
14293;BME280;62290;59.420;17.842;2023-02-28T02:05:25;102305.47;;;25.84;18.05
14293;BME280;62290;59.420;17.842;2023-02-28T02:07:56;102311.84;;;25.83;18.47
14293;BME280;62290;59.420;17.842;2023-02-28T02:10:30;102302.00;;;25.82;18.08
14293;BME280;62290;59.420;17.842;2023-02-28T02:13:10;102294.91;;;25.81;18.56
14293;BME280;62290;59.420;17.842;2023-02-28T02:15:46;102294.03;;;25.80;18.49
14293;BME280;62290;59.420;17.842;2023-02-28T02:18:26;102300.16;;;25.82;18.39
14293;BME280;62290;59.420;17.842;2023-02-28T02:21:42;102286.78;;;25.81;18.32
14293;BME280;62290;59.420;17.842;2023-02-28T02:24:55;102294.13;;;25.78;18.25
14293;BME280;62290;59.420;17.842;2023-02-28T02:27:38;102270.38;;;25.58;18.32
14293;BME280;62290;59.420;17.842;2023-02-28T02:30:27;102293.50;;;25.75;18.45
14293;BME280;62290;59.420;17.842;2023-02-28T02:33:14;102288.09;;;25.75;18.51
14293;BME280;62290;59.420;17.842;2023-02-28T02:35:53;102302.47;;;25.75;18.53
14293;BME280;62290;59.420;17.842;2023-02-28T02:38:31;102297.91;;;25.76;18.39
14293;BME280;62290;59.420;17.842;2023-02-28T02:41:08;102289.78;;;25.76;18.17
14293;BME280;62290;59.420;17.842;2023-02-28T02:43:44;102289.78;;;25.76;18.14
14293;BME280;62290;59.420;17.842;2023-02-28T02:46:17;102288.84;;;25.77;18.60
14293;BME280;62290;59.420;17.842;2023-02-28T02:48:48;102265.66;;;25.62;18.59
14293;BME280;62290;59.420;17.842;2023-02-28T02:51:22;102300.38;;;25.79;18.44
14293;BME280;62290;59.420;17.842;2023-02-28T02:53:54;102303.09;;;25.79;18.46
14293;BME280;62290;59.420;17.842;2023-02-28T02:56:29;102291.31;;;25.80;18.24
14293;BME280;62290;59.420;17.842;2023-02-28T02:59:02;102295.75;;;25.81;18.15
14293;BME280;62290;59.420;17.842;2023-02-28T03:01:33;102296.50;;;25.83;18.61
14293;BME280;62290;59.420;17.842;2023-02-28T03:04:04;102303.63;;;25.84;18.56
14293;BME280;62290;59.420;17.842;2023-02-28T03:06:35;102303.63;;;25.84;18.33
14293;BME280;62290;59.420;17.842;2023-02-28T03:09:03;102259.16;;;25.64;18.50
14293;BME280;62290;59.420;17.842;2023-02-28T03:11:32;102292.19;;;25.81;18.29
14293;BME280;62290;59.420;17.842;2023-02-28T03:14:10;102296.50;;;25.83;18.54
14293;BME280;62290;59.420;17.842;2023-02-28T03:16:53;102300.16;;;25.82;18.12
14293;BME280;62290;59.420;17.842;2023-02-28T03:19:48;102291.53;;;25.77;18.27
14293;BME280;62290;59.420;17.842;2023-02-28T03:22:46;102295.00;;;25.79;18.15
14293;BME280;62290;59.420;17.842;2023-02-28T03:25:28;102302.34;;;25.77;18.22
14293;BME280;62290;59.420;17.842;2023-02-28T03:28:05;102287.09;;;25.76;18.72
14293;BME280;62290;59.420;17.842;2023-02-28T03:30:41;102283.66;;;25.74;18.70
14293;BME280;62290;59.420;17.842;2023-02-28T03:33:16;102289.19;;;25.72;18.42
14293;BME280;62290;59.420;17.842;2023-02-28T03:35:51;102288.31;;;25.72;18.35
14293;BME280;62290;59.420;17.842;2023-02-28T03:38:27;102294.66;;;25.71;18.43
14293;BME280;62290;59.420;17.842;2023-02-28T03:41:00;102296.53;;;25.70;18.30
14293;BME280;62290;59.420;17.842;2023-02-28T03:43:33;102308.28;;;25.69;18.73
14293;BME280;62290;59.420;17.842;2023-02-28T03:46:07;102297.50;;;25.69;18.82
14293;BME280;62290;59.420;17.842;2023-02-28T03:48:40;102303.03;;;25.68;18.74
14293;BME280;62290;59.420;17.842;2023-02-28T03:51:14;102304.72;;;25.69;18.46
14293;BME280;62290;59.420;17.842;2023-02-28T03:53:47;102307.53;;;25.67;18.72
14293;BME280;62290;59.420;17.842;2023-02-28T03:56:20;102302.25;;;25.66;18.69
14293;BME280;62290;59.420;17.842;2023-02-28T03:58:53;102300.41;;;25.66;18.78
14293;BME280;62290;59.420;17.842;2023-02-28T04:01:26;102294.03;;;25.67;18.46
14293;BME280;62290;59.420;17.842;2023-02-28T04:03:55;102293.91;;;25.69;18.42
14293;BME280;62290;59.420;17.842;2023-02-28T04:06:23;102286.56;;;25.71;18.34
14293;BME280;62290;59.420;17.842;2023-02-28T04:08:53;102277.63;;;25.70;18.73
14293;BME280;62290;59.420;17.842;2023-02-28T04:11:23;102282.91;;;25.72;18.37
14293;BME280;62290;59.420;17.842;2023-02-28T04:13:56;102274.81;;;25.72;18.35
14293;BME280;62290;59.420;17.842;2023-02-28T04:16:24;102276.63;;;25.71;18.38
14293;BME280;62290;59.420;17.842;2023-02-28T04:19:01;102286.34;;;25.74;18.44
14293;BME280;62290;59.420;17.842;2023-02-28T04:21:33;102282.69;;;25.75;18.65
14293;BME280;62290;59.420;17.842;2023-02-28T04:24:03;102274.59;;;25.75;18.67
14293;BME280;62290;59.420;17.842;2023-02-28T04:26:32;102279.00;;;25.76;18.61
14293;BME280;62290;59.420;17.842;2023-02-28T04:29:01;102281.16;;;25.71;18.34
14293;BME280;62290;59.420;17.842;2023-02-28T04:31:30;102279.00;;;25.76;18.31
14293;BME280;62290;59.420;17.842;2023-02-28T04:33:59;102286.13;;;25.77;18.63
14293;BME280;62290;59.420;17.842;2023-02-28T04:36:27;102279.13;;;25.74;18.67
14293;BME280;62290;59.420;17.842;2023-02-28T04:38:56;102282.69;;;25.75;18.29
14293;BME280;62290;59.420;17.842;2023-02-28T04:41:26;102277.38;;;25.73;18.23
14293;BME280;62290;59.420;17.842;2023-02-28T04:43:58;102273.94;;;25.71;18.47
14293;BME280;62290;59.420;17.842;2023-02-28T04:46:26;102270.38;;;25.71;18.36
14293;BME280;62290;59.420;17.842;2023-02-28T04:48:54;102285.59;;;25.72;18.19
14293;BME280;62290;59.420;17.842;2023-02-28T04:51:22;102288.31;;;25.72;18.33
14293;BME280;62290;59.420;17.842;2023-02-28T04:53:50;102288.31;;;25.72;18.38
14293;BME280;62290;59.420;17.842;2023-02-28T04:56:18;102291.97;;;25.71;18.32
14293;BME280;62290;59.420;17.842;2023-02-28T04:58:48;102291.13;;;25.70;18.28
14293;BME280;62290;59.420;17.842;2023-02-28T05:01:22;102298.38;;;25.70;18.66
14293;BME280;62290;59.420;17.842;2023-02-28T05:03:52;102283.13;;;25.56;18.37
14293;BME280;62290;59.420;17.842;2023-02-28T05:06:22;102297.72;;;25.66;18.67
14293;BME280;62290;59.420;17.842;2023-02-28T05:08:51;102297.06;;;25.63;18.73
14293;BME280;62290;59.420;17.842;2023-02-28T05:11:21;102307.84;;;25.63;18.35
14293;BME280;62290;59.420;17.842;2023-02-28T05:13:51;102286.94;;;25.54;18.41
14293;BME280;62290;59.420;17.842;2023-02-28T05:16:20;102270.59;;;25.43;18.57
14293;BME280;62290;59.420;17.842;2023-02-28T05:18:48;102303.66;;;25.59;18.26
14293;BME280;62290;59.420;17.842;2023-02-28T05:21:28;102303.53;;;25.60;18.67
14293;BME280;62290;59.420;17.842;2023-02-28T05:23:59;102305.41;;;25.60;18.23
14293;BME280;62290;59.420;17.842;2023-02-28T05:26:27;102308.84;;;25.62;18.74
14293;BME280;62290;59.420;17.842;2023-02-28T05:28:57;102310.47;;;25.64;18.57
14293;BME280;62290;59.420;17.842;2023-02-28T05:31:25;102309.47;;;25.65;18.31
14293;BME280;62290;59.420;17.842;2023-02-28T05:33:54;102299.44;;;25.67;18.62
14293;BME280;62290;59.420;17.842;2023-02-28T05:36:23;102303.03;;;25.68;18.07
14293;BME280;62290;59.420;17.842;2023-02-28T05:38:51;102301.16;;;25.68;18.09
14293;BME280;62290;59.420;17.842;2023-02-28T05:41:20;102309.25;;;25.68;18.10
14293;BME280;62290;59.420;17.842;2023-02-28T05:43:48;102313.81;;;25.68;18.36
14293;BME280;62290;59.420;17.842;2023-02-28T05:46:18;102318.22;;;25.69;18.41
14293;BME280;62290;59.420;17.842;2023-02-28T05:48:47;102311.00;;;25.69;18.19
14293;BME280;62290;59.420;17.842;2023-02-28T05:51:16;102313.69;;;25.69;18.42
14293;BME280;62290;59.420;17.842;2023-02-28T05:53:44;102313.56;;;25.71;18.06
14293;BME280;62290;59.420;17.842;2023-02-28T05:56:12;102311.88;;;25.70;18.07
14293;BME280;62290;59.420;17.842;2023-02-28T05:58:40;102324.50;;;25.69;18.54
14293;BME280;62290;59.420;17.842;2023-02-28T06:01:25;102297.72;;;25.54;18.28
14293;BME280;62290;59.420;17.842;2023-02-28T06:03:58;102287.53;;;25.45;18.45
14293;BME280;62290;59.420;17.842;2023-02-28T06:06:26;102323.09;;;25.64;18.60
14293;BME280;62290;59.420;17.842;2023-02-28T06:08:54;102321.34;;;25.63;18.48
14293;BME280;62290;59.420;17.842;2023-02-28T06:11:23;102315.88;;;25.64;18.22
14293;BME280;62290;59.420;17.842;2023-02-28T06:13:54;102311.41;;;25.63;18.17
14293;BME280;62290;59.420;17.842;2023-02-28T06:16:25;102323.84;;;25.66;18.12
14293;BME280;62290;59.420;17.842;2023-02-28T06:18:53;102325.66;;;25.65;18.62
14293;BME280;62290;59.420;17.842;2023-02-28T06:21:23;102323.84;;;25.66;18.18
14293;BME280;62290;59.420;17.842;2023-02-28T06:23:51;102331.19;;;25.64;18.03
14293;BME280;62290;59.420;17.842;2023-02-28T06:26:19;102336.47;;;25.65;18.60
14293;BME280;62290;59.420;17.842;2023-02-28T06:28:47;102332.16;;;25.63;18.08
14293;BME280;62290;59.420;17.842;2023-02-28T06:31:17;102338.44;;;25.63;18.54
14293;BME280;62290;59.420;17.842;2023-02-28T06:33:47;102332.28;;;25.61;18.66
14293;BME280;62290;59.420;17.842;2023-02-28T06:36:16;102337.81;;;25.60;18.72
14293;BME280;62290;59.420;17.842;2023-02-28T06:38:44;102335.72;;;25.63;18.18
14293;BME280;62290;59.420;17.842;2023-02-28T06:41:12;102339.28;;;25.64;18.44
14293;BME280;62290;59.420;17.842;2023-02-28T06:43:41;102342.75;;;25.66;18.26
14293;BME280;62290;59.420;17.842;2023-02-28T06:46:12;102349.88;;;25.67;18.60
14293;BME280;62290;59.420;17.842;2023-02-28T06:48:42;102346.22;;;25.68;18.19
14293;BME280;62290;59.420;17.842;2023-02-28T06:51:14;102341.66;;;25.68;18.67
14293;BME280;62290;59.420;17.842;2023-02-28T06:53:42;102338.97;;;25.68;18.72
14293;BME280;62290;59.420;17.842;2023-02-28T06:56:12;102334.56;;;25.67;18.50
14293;BME280;62290;59.420;17.842;2023-02-28T06:58:40;102341.56;;;25.70;18.25
14293;BME280;62290;59.420;17.842;2023-02-28T07:01:09;102338.97;;;25.68;18.45
14293;BME280;62290;59.420;17.842;2023-02-28T07:03:37;102337.03;;;25.70;18.58
14293;BME280;62290;59.420;17.842;2023-02-28T07:06:05;102340.56;;;25.71;18.59
14293;BME280;62290;59.420;17.842;2023-02-28T07:08:35;102346.84;;;25.71;18.41
14293;BME280;62290;59.420;17.842;2023-02-28T07:11:04;102348.69;;;25.71;18.70
14293;BME280;62290;59.420;17.842;2023-02-28T07:13:32;102342.53;;;25.69;18.14
14293;BME280;62290;59.420;17.842;2023-02-28T07:16:02;102341.78;;;25.67;18.23
14293;BME280;62290;59.420;17.842;2023-02-28T07:18:31;102341.78;;;25.67;18.33
14293;BME280;62290;59.420;17.842;2023-02-28T07:21:01;102307.13;;;25.48;18.49
14293;BME280;62290;59.420;17.842;2023-02-28T07:23:30;102344.69;;;25.64;18.25
14293;BME280;62290;59.420;17.842;2023-02-28T07:25:59;102348.34;;;25.63;18.18
14293;BME280;62290;59.420;17.842;2023-02-28T07:28:27;102348.47;;;25.61;18.63
14293;BME280;62290;59.420;17.842;2023-02-28T07:30:55;102345.78;;;25.61;18.57
14293;BME280;62290;59.420;17.842;2023-02-28T07:33:24;102339.41;;;25.62;18.69
14293;BME280;62290;59.420;17.842;2023-02-28T07:35:52;102339.28;;;25.64;18.40
14293;BME280;62290;59.420;17.842;2023-02-28T07:38:27;102341.03;;;25.65;18.35
14293;BME280;62290;59.420;17.842;2023-02-28T07:40:55;102344.56;;;25.65;18.59
14293;BME280;62290;59.420;17.842;2023-02-28T07:43:25;102347.28;;;25.65;18.22
14293;BME280;62290;59.420;17.842;2023-02-28T07:45:52;102344.69;;;25.64;18.31
14293;BME280;62290;59.420;17.842;2023-02-28T07:48:21;102342.97;;;25.63;18.22
14293;BME280;62290;59.420;17.842;2023-02-28T07:50:54;102344.91;;;25.61;18.35
14293;BME280;62290;59.420;17.842;2023-02-28T07:53:23;102332.59;;;25.57;18.50
14293;BME280;62290;59.420;17.842;2023-02-28T07:55:54;102334.31;;;25.58;18.38
14293;BME280;62290;59.420;17.842;2023-02-28T07:58:23;102336.94;;;25.59;18.72
14293;BME280;62290;59.420;17.842;2023-02-28T08:00:52;102332.16;;;25.63;18.83
14293;BME280;62290;59.420;17.842;2023-02-28T08:03:22;102333.78;;;25.65;18.82
14293;BME280;62290;59.420;17.842;2023-02-28T08:05:50;102328.50;;;25.64;18.97
14293;BME280;62290;59.420;17.842;2023-02-28T08:08:19;102319.09;;;25.69;18.59
14293;BME280;62290;59.420;17.842;2023-02-28T08:10:47;102320.59;;;25.73;18.95
14293;BME280;62290;59.420;17.842;2023-02-28T08:13:15;102324.81;;;25.77;18.95
14293;BME280;62290;59.420;17.842;2023-02-28T08:15:43;102319.19;;;25.81;18.91
14293;BME280;62290;59.420;17.842;2023-02-28T08:18:13;102326.31;;;25.82;18.74
14293;BME280;62290;59.420;17.842;2023-02-28T08:20:41;102316.81;;;25.89;18.58
14293;BME280;62290;59.420;17.842;2023-02-28T08:23:09;102323.72;;;25.93;18.70
14293;BME280;62290;59.420;17.842;2023-02-28T08:25:37;102324.34;;;25.96;18.41
14293;BME280;62290;59.420;17.842;2023-02-28T08:28:05;102324.97;;;26.00;18.78
14293;BME280;62290;59.420;17.842;2023-02-28T08:30:33;102332.00;;;26.02;18.53
14293;BME280;62290;59.420;17.842;2023-02-28T08:33:01;102329.72;;;26.09;18.84
14293;BME280;62290;59.420;17.842;2023-02-28T08:35:30;102319.59;;;26.12;18.39
14293;BME280;62290;59.420;17.842;2023-02-28T08:37:58;102329.41;;;26.13;18.43
14293;BME280;62290;59.420;17.842;2023-02-28T08:40:26;102327.47;;;26.15;18.71
14293;BME280;62290;59.420;17.842;2023-02-28T08:42:54;102327.38;;;26.17;18.57
14293;BME280;62290;59.420;17.842;2023-02-28T08:45:23;102322.72;;;26.19;18.28
14293;BME280;62290;59.420;17.842;2023-02-28T08:47:52;102320.66;;;26.22;18.17
14293;BME280;62290;59.420;17.842;2023-02-28T08:50:22;102314.16;;;26.25;18.33
14293;BME280;62290;59.420;17.842;2023-02-28T08:52:51;102316.72;;;26.26;18.30
14293;BME280;62290;59.420;17.842;2023-02-28T08:55:19;102316.50;;;26.29;18.53
14293;BME280;62290;59.420;17.842;2023-02-28T08:57:47;102304.59;;;26.32;18.15
14293;BME280;62290;59.420;17.842;2023-02-28T09:00:15;102309.88;;;26.33;18.10
14293;BME280;62290;59.420;17.842;2023-02-28T09:02:43;102309.78;;;26.35;18.52
14293;BME280;62290;59.420;17.842;2023-02-28T09:05:11;102305.88;;;26.39;18.12
14293;BME280;62290;59.420;17.842;2023-02-28T09:07:39;102302.19;;;26.40;18.19
14293;BME280;62290;59.420;17.842;2023-02-28T09:10:10;102297.44;;;26.44;18.10
14293;BME280;62290;59.420;17.842;2023-02-28T09:12:39;102293.63;;;26.46;18.12
14293;BME280;62290;59.420;17.842;2023-02-28T09:15:08;102289.06;;;26.47;18.03
14293;BME280;62290;59.420;17.842;2023-02-28T09:17:36;102289.72;;;26.50;18.52
14293;BME280;62290;59.420;17.842;2023-02-28T09:20:05;102281.38;;;26.53;18.16
14293;BME280;62290;59.420;17.842;2023-02-28T09:22:33;102289.25;;;26.56;18.30
14293;BME280;62290;59.420;17.842;2023-02-28T09:25:02;102290.09;;;26.57;18.29
14293;BME280;62290;59.420;17.842;2023-02-28T09:27:31;102279.06;;;26.60;18.10
14293;BME280;62290;59.420;17.842;2023-02-28T09:29:59;102278.97;;;26.61;18.32
14293;BME280;62290;59.420;17.842;2023-02-28T09:32:27;102274.41;;;26.62;18.24
14293;BME280;62290;59.420;17.842;2023-02-28T09:34:55;102278.81;;;26.63;18.75
14293;BME280;62290;59.420;17.842;2023-02-28T09:37:23;102277.00;;;26.63;18.69
14293;BME280;62290;59.420;17.842;2023-02-28T09:39:53;102268.66;;;26.66;18.62
14293;BME280;62290;59.420;17.842;2023-02-28T09:42:32;102236.50;;;26.51;18.39
14293;BME280;62290;59.420;17.842;2023-02-28T09:45:06;102265.72;;;26.69;18.37
14293;BME280;62290;59.420;17.842;2023-02-28T09:47:43;102264.50;;;26.73;18.38
14293;BME280;62290;59.420;17.842;2023-02-28T09:50:29;102271.63;;;26.74;18.22
14293;BME280;62290;59.420;17.842;2023-02-28T09:53:02;102263.63;;;26.73;18.21
14293;BME280;62290;59.420;17.842;2023-02-28T09:55:37;102261.78;;;26.73;18.40
14293;BME280;62290;59.420;17.842;2023-02-28T09:58:18;102257.25;;;26.74;18.12
14293;BME280;62290;59.420;17.842;2023-02-28T10:00:56;102265.16;;;26.77;18.59
14293;BME280;62290;59.420;17.842;2023-02-28T10:03:30;102264.25;;;26.76;18.47
14293;BME280;62290;59.420;17.842;2023-02-28T10:06:06;102265.03;;;26.78;18.60
14293;BME280;62290;59.420;17.842;2023-02-28T10:08:38;102261.34;;;26.79;18.23
14293;BME280;62290;59.420;17.842;2023-02-28T10:11:14;102264.16;;;26.78;18.37
14293;BME280;62290;59.420;17.842;2023-02-28T10:13:51;102266.09;;;26.76;18.30
14293;BME280;62290;59.420;17.842;2023-02-28T10:16:25;102260.06;;;26.72;18.25
14293;BME280;62290;59.420;17.842;2023-02-28T10:19:02;102274.56;;;26.71;18.65
14293;BME280;62290;59.420;17.842;2023-02-28T10:21:35;102284.50;;;26.71;18.54
14293;BME280;62290;59.420;17.842;2023-02-28T10:24:13;102283.66;;;26.70;18.69
14293;BME280;62290;59.420;17.842;2023-02-28T10:26:48;102285.75;;;26.67;18.78
14293;BME280;62290;59.420;17.842;2023-02-28T10:29:17;102289.19;;;26.69;18.32
14293;BME280;62290;59.420;17.842;2023-02-28T10:31:45;102294.69;;;26.67;18.44
14293;BME280;62290;59.420;17.842;2023-02-28T10:34:13;102289.28;;;26.67;18.61
14293;BME280;62290;59.420;17.842;2023-02-28T10:36:42;102294.59;;;26.69;18.63
14293;BME280;62290;59.420;17.842;2023-02-28T10:39:35;102284.66;;;26.69;18.72
14293;BME280;62290;59.420;17.842;2023-02-28T10:42:04;102293.59;;;26.70;18.72
14293;BME280;62290;59.420;17.842;2023-02-28T10:44:45;102292.53;;;26.72;18.28
14293;BME280;62290;59.420;17.842;2023-02-28T10:47:15;102284.16;;;26.75;18.33
14293;BME280;62290;59.420;17.842;2023-02-28T10:49:48;102273.47;;;26.74;18.27
14293;BME280;62290;59.420;17.842;2023-02-28T10:52:33;102285.16;;;26.74;18.18
14293;BME280;62290;59.420;17.842;2023-02-28T10:55:15;102273.47;;;26.74;18.20
14293;BME280;62290;59.420;17.842;2023-02-28T10:57:44;102272.72;;;26.72;18.04
14293;BME280;62290;59.420;17.842;2023-02-28T11:00:17;102271.72;;;26.73;18.17
14293;BME280;62290;59.420;17.842;2023-02-28T11:02:45;102276.53;;;26.69;17.95
14293;BME280;62290;59.420;17.842;2023-02-28T11:05:25;102288.19;;;26.70;18.00
14293;BME280;62290;59.420;17.842;2023-02-28T11:07:55;102289.41;;;26.66;18.32
14293;BME280;62290;59.420;17.842;2023-02-28T11:10:26;102292.88;;;26.68;17.91
14293;BME280;62290;59.420;17.842;2023-02-28T11:12:56;102286.72;;;26.66;17.97
14293;BME280;62290;59.420;17.842;2023-02-28T11:15:30;102289.41;;;26.66;18.40
14293;BME280;62290;59.420;17.842;2023-02-28T11:18:00;102284.13;;;26.64;17.90
14293;BME280;62290;59.420;17.842;2023-02-28T11:20:32;102280.56;;;26.64;18.17
14293;BME280;62290;59.420;17.842;2023-02-28T11:23:02;102279.69;;;26.63;18.18
14293;BME280;62290;59.420;17.842;2023-02-28T11:25:32;102277.22;;;26.60;18.32
14293;BME280;62290;59.420;17.842;2023-02-28T11:28:03;102279.81;;;26.62;17.97
14293;BME280;62290;59.420;17.842;2023-02-28T11:30:36;102277.97;;;26.62;18.25
14293;BME280;62290;59.420;17.842;2023-02-28T11:33:27;102278.09;;;26.61;18.83
14293;BME280;62290;59.420;17.842;2023-02-28T11:35:57;102282.53;;;26.62;19.00
14293;BME280;62290;59.420;17.842;2023-02-28T11:38:26;102271.44;;;26.65;19.02
14293;BME280;62290;59.420;17.842;2023-02-28T11:41:17;102264.84;;;26.69;19.51
14293;BME280;62290;59.420;17.842;2023-02-28T11:43:58;102268.28;;;26.71;18.92
14293;BME280;62290;59.420;17.842;2023-02-28T11:46:37;102266.56;;;26.70;19.23
14293;BME280;62290;59.420;17.842;2023-02-28T11:49:32;102264.72;;;26.70;19.22
14293;BME280;62290;59.420;17.842;2023-02-28T11:52:10;102253.03;;;26.70;18.62
14293;BME280;62290;59.420;17.842;2023-02-28T11:54:55;102252.28;;;26.68;18.65
14293;BME280;62290;59.420;17.842;2023-02-28T11:57:43;102245.91;;;26.69;18.48
14293;BME280;62290;59.420;17.842;2023-02-28T12:00:29;102245.19;;;26.67;18.87
14293;BME280;62290;59.420;17.842;2023-02-28T12:03:16;102233.59;;;26.65;18.69
14293;BME280;62290;59.420;17.842;2023-02-28T12:05:54;102245.28;;;26.65;18.27
14293;BME280;62290;59.420;17.842;2023-02-28T12:08:32;102241.69;;;26.65;18.42
14293;BME280;62290;59.420;17.842;2023-02-28T12:11:16;102246.16;;;26.66;18.40
14293;BME280;62290;59.420;17.842;2023-02-28T12:13:53;102236.28;;;26.65;18.42
14293;BME280;62290;59.420;17.842;2023-02-28T12:16:37;102231.75;;;26.65;18.23
14293;BME280;62290;59.420;17.842;2023-02-28T12:19:22;102217.09;;;26.57;18.53
14293;BME280;62290;59.420;17.842;2023-02-28T12:22:06;102242.69;;;26.64;18.55
14293;BME280;62290;59.420;17.842;2023-02-28T12:24:58;102247.25;;;26.63;18.54
14293;BME280;62290;59.420;17.842;2023-02-28T12:27:31;102240.09;;;26.62;18.34
14293;BME280;62290;59.420;17.842;2023-02-28T12:30:03;102240.97;;;26.63;18.14
14293;BME280;62290;59.420;17.842;2023-02-28T12:32:36;102234.69;;;26.62;18.53
14293;BME280;62290;59.420;17.842;2023-02-28T12:35:12;102234.69;;;26.62;18.42
14293;BME280;62290;59.420;17.842;2023-02-28T12:37:45;102232.13;;;26.61;18.15
14293;BME280;62290;59.420;17.842;2023-02-28T12:40:18;102225.97;;;26.59;18.20
14293;BME280;62290;59.420;17.842;2023-02-28T12:42:50;102233.22;;;26.58;18.14
14293;BME280;62290;59.420;17.842;2023-02-28T12:45:21;102225.19;;;26.57;18.37
14293;BME280;62290;59.420;17.842;2023-02-28T12:47:54;102227.91;;;26.57;18.45
14293;BME280;62290;59.420;17.842;2023-02-28T12:50:27;102232.47;;;26.56;18.42
14293;BME280;62290;59.420;17.842;2023-02-28T12:53:01;102234.41;;;26.54;18.28
14293;BME280;62290;59.420;17.842;2023-02-28T12:55:35;102231.84;;;26.53;18.21
14293;BME280;62290;59.420;17.842;2023-02-28T12:58:12;102230.00;;;26.53;18.06
14293;BME280;62290;59.420;17.842;2023-02-28T13:01:06;102237.13;;;26.54;18.20
14293;BME280;62290;59.420;17.842;2023-02-28T13:03:59;102230.09;;;26.52;18.40
14293;BME280;62290;59.420;17.842;2023-02-28T13:06:50;102231.09;;;26.51;18.25